sensor_id;sensor_type;location;lat;lon;timestamp;temperature;humidity
30304;DHT22;17112;48.636;10.152;2022-10-26T00:01:08;12.20;72.60
30304;DHT22;17112;48.636;10.152;2022-10-26T00:03:35;12.20;73.20
30304;DHT22;17112;48.636;10.152;2022-10-26T00:06:12;12.30;72.80
30304;DHT22;17112;48.636;10.152;2022-10-26T00:08:38;12.30;72.90
30304;DHT22;17112;48.636;10.152;2022-10-26T00:11:04;12.30;72.70
30304;DHT22;17112;48.636;10.152;2022-10-26T00:13:30;12.30;72.80
30304;DHT22;17112;48.636;10.152;2022-10-26T00:15:56;12.30;72.70
30304;DHT22;17112;48.636;10.152;2022-10-26T00:18:22;12.40;72.80
30304;DHT22;17112;48.636;10.152;2022-10-26T00:20:47;12.40;72.90
30304;DHT22;17112;48.636;10.152;2022-10-26T00:23:13;12.40;72.90
30304;DHT22;17112;48.636;10.152;2022-10-26T00:25:39;12.40;72.90
30304;DHT22;17112;48.636;10.152;2022-10-26T00:28:04;12.40;73.00
30304;DHT22;17112;48.636;10.152;2022-10-26T00:30:30;12.40;73.10
30304;DHT22;17112;48.636;10.152;2022-10-26T00:32:56;12.50;73.00
30304;DHT22;17112;48.636;10.152;2022-10-26T00:35:21;12.50;73.10
30304;DHT22;17112;48.636;10.152;2022-10-26T00:37:47;12.50;73.20
30304;DHT22;17112;48.636;10.152;2022-10-26T00:40:13;12.50;73.20
30304;DHT22;17112;48.636;10.152;2022-10-26T00:42:38;12.50;73.10
30304;DHT22;17112;48.636;10.152;2022-10-26T00:45:18;12.50;73.20
30304;DHT22;17112;48.636;10.152;2022-10-26T00:47:49;12.50;73.80
30304;DHT22;17112;48.636;10.152;2022-10-26T00:50:30;12.60;73.30
30304;DHT22;17112;48.636;10.152;2022-10-26T00:52:58;12.60;73.20
30304;DHT22;17112;48.636;10.152;2022-10-26T00:55:29;12.60;72.90
30304;DHT22;17112;48.636;10.152;2022-10-26T00:57:58;12.70;73.30
30304;DHT22;17112;48.636;10.152;2022-10-26T01:00:24;12.70;73.10
30304;DHT22;17112;48.636;10.152;2022-10-26T01:02:51;12.70;73.20
30304;DHT22;17112;48.636;10.152;2022-10-26T01:05:19;12.70;73.20
30304;DHT22;17112;48.636;10.152;2022-10-26T01:07:46;12.70;73.20
30304;DHT22;17112;48.636;10.152;2022-10-26T01:10:12;12.70;73.30
30304;DHT22;17112;48.636;10.152;2022-10-26T01:12:40;12.80;73.40
30304;DHT22;17112;48.636;10.152;2022-10-26T01:15:06;12.80;73.30
30304;DHT22;17112;48.636;10.152;2022-10-26T01:17:56;12.80;73.30
30304;DHT22;17112;48.636;10.152;2022-10-26T01:20:34;12.80;74.00
30304;DHT22;17112;48.636;10.152;2022-10-26T01:31:22;12.90;73.80
30304;DHT22;17112;48.636;10.152;2022-10-26T01:34:05;12.90;73.40
30304;DHT22;17112;48.636;10.152;2022-10-26T01:36:45;12.90;73.90
30304;DHT22;17112;48.636;10.152;2022-10-26T01:39:29;12.90;73.90
30304;DHT22;17112;48.636;10.152;2022-10-26T01:42:00;12.90;73.90
30304;DHT22;17112;48.636;10.152;2022-10-26T01:45:12;13.00;73.30
30304;DHT22;17112;48.636;10.152;2022-10-26T01:47:19;13.00;73.40
30304;DHT22;17112;48.636;10.152;2022-10-26T01:49:52;13.00;73.30
30304;DHT22;17112;48.636;10.152;2022-10-26T01:52:20;13.00;73.40
30304;DHT22;17112;48.636;10.152;2022-10-26T01:54:46;13.00;73.20
30304;DHT22;17112;48.636;10.152;2022-10-26T01:57:14;13.00;73.20
30304;DHT22;17112;48.636;10.152;2022-10-26T02:00:05;13.00;73.30
30304;DHT22;17112;48.636;10.152;2022-10-26T02:02:47;13.00;73.60
30304;DHT22;17112;48.636;10.152;2022-10-26T02:08:35;13.00;73.70
30304;DHT22;17112;48.636;10.152;2022-10-26T02:14:10;13.00;73.70
30304;DHT22;17112;48.636;10.152;2022-10-26T02:17:13;13.10;73.70
30304;DHT22;17112;48.636;10.152;2022-10-26T02:19:47;13.00;73.90
30304;DHT22;17112;48.636;10.152;2022-10-26T02:22:26;13.00;73.40
30304;DHT22;17112;48.636;10.152;2022-10-26T02:24:53;13.00;73.30
30304;DHT22;17112;48.636;10.152;2022-10-26T02:27:29;13.00;73.20
30304;DHT22;17112;48.636;10.152;2022-10-26T02:29:57;13.00;73.70
30304;DHT22;17112;48.636;10.152;2022-10-26T02:32:26;13.00;73.50
30304;DHT22;17112;48.636;10.152;2022-10-26T02:34:55;13.00;73.70
30304;DHT22;17112;48.636;10.152;2022-10-26T02:37:23;13.00;73.40
30304;DHT22;17112;48.636;10.152;2022-10-26T02:39:50;13.00;73.60
30304;DHT22;17112;48.636;10.152;2022-10-26T02:42:18;12.90;73.70
30304;DHT22;17112;48.636;10.152;2022-10-26T02:44:49;12.90;73.90
30304;DHT22;17112;48.636;10.152;2022-10-26T02:47:17;12.90;74.10
30304;DHT22;17112;48.636;10.152;2022-10-26T02:49:43;13.00;74.10
30304;DHT22;17112;48.636;10.152;2022-10-26T02:55:03;13.00;74.50
30304;DHT22;17112;48.636;10.152;2022-10-26T02:57:37;13.00;74.60
30304;DHT22;17112;48.636;10.152;2022-10-26T03:00:11;13.00;74.50
30304;DHT22;17112;48.636;10.152;2022-10-26T03:02:40;13.00;74.50
30304;DHT22;17112;48.636;10.152;2022-10-26T03:05:15;13.00;74.30
30304;DHT22;17112;48.636;10.152;2022-10-26T03:07:42;13.00;74.20
30304;DHT22;17112;48.636;10.152;2022-10-26T03:10:08;13.10;74.20
30304;DHT22;17112;48.636;10.152;2022-10-26T03:12:34;13.10;74.20
30304;DHT22;17112;48.636;10.152;2022-10-26T03:15:02;13.10;74.40
30304;DHT22;17112;48.636;10.152;2022-10-26T03:17:27;13.10;74.40
30304;DHT22;17112;48.636;10.152;2022-10-26T03:19:53;13.10;74.40
30304;DHT22;17112;48.636;10.152;2022-10-26T03:22:20;13.10;74.50
30304;DHT22;17112;48.636;10.152;2022-10-26T03:24:46;13.10;74.50
30304;DHT22;17112;48.636;10.152;2022-10-26T03:27:12;13.10;74.60
30304;DHT22;17112;48.636;10.152;2022-10-26T03:29:38;13.10;74.70
30304;DHT22;17112;48.636;10.152;2022-10-26T03:32:04;13.10;74.70
30304;DHT22;17112;48.636;10.152;2022-10-26T03:34:30;13.10;74.80
30304;DHT22;17112;48.636;10.152;2022-10-26T03:36:56;13.20;74.80
30304;DHT22;17112;48.636;10.152;2022-10-26T03:39:21;13.20;74.80
30304;DHT22;17112;48.636;10.152;2022-10-26T03:41:47;13.20;75.40
30304;DHT22;17112;48.636;10.152;2022-10-26T03:44:13;13.20;74.60
30304;DHT22;17112;48.636;10.152;2022-10-26T03:46:39;13.20;74.70
30304;DHT22;17112;48.636;10.152;2022-10-26T03:49:06;13.20;74.70
30304;DHT22;17112;48.636;10.152;2022-10-26T03:51:31;13.20;74.60
30304;DHT22;17112;48.636;10.152;2022-10-26T03:53:57;13.20;74.50
30304;DHT22;17112;48.636;10.152;2022-10-26T03:56:23;13.20;74.70
30304;DHT22;17112;48.636;10.152;2022-10-26T03:58:48;13.20;74.70
30304;DHT22;17112;48.636;10.152;2022-10-26T04:01:14;13.20;74.80
30304;DHT22;17112;48.636;10.152;2022-10-26T04:03:40;13.20;74.90
30304;DHT22;17112;48.636;10.152;2022-10-26T04:06:05;13.20;74.90
30304;DHT22;17112;48.636;10.152;2022-10-26T04:08:31;13.20;74.90
30304;DHT22;17112;48.636;10.152;2022-10-26T04:10:57;13.30;75.00
30304;DHT22;17112;48.636;10.152;2022-10-26T04:13:23;13.30;75.00
30304;DHT22;17112;48.636;10.152;2022-10-26T04:15:49;13.30;75.00
30304;DHT22;17112;48.636;10.152;2022-10-26T04:18:15;13.30;75.00
30304;DHT22;17112;48.636;10.152;2022-10-26T04:20:40;13.30;75.00
30304;DHT22;17112;48.636;10.152;2022-10-26T04:23:10;13.30;75.00
30304;DHT22;17112;48.636;10.152;2022-10-26T04:25:36;13.30;75.20
30304;DHT22;17112;48.636;10.152;2022-10-26T04:28:03;13.30;75.20
30304;DHT22;17112;48.636;10.152;2022-10-26T04:30:29;13.30;75.20
30304;DHT22;17112;48.636;10.152;2022-10-26T04:32:56;13.30;75.20
30304;DHT22;17112;48.636;10.152;2022-10-26T04:35:22;13.30;75.00
30304;DHT22;17112;48.636;10.152;2022-10-26T04:37:48;13.30;75.00
30304;DHT22;17112;48.636;10.152;2022-10-26T04:40:14;13.30;75.00
30304;DHT22;17112;48.636;10.152;2022-10-26T04:42:45;13.30;75.10
30304;DHT22;17112;48.636;10.152;2022-10-26T04:45:13;13.30;75.20
30304;DHT22;17112;48.636;10.152;2022-10-26T04:47:38;13.30;75.20
30304;DHT22;17112;48.636;10.152;2022-10-26T04:50:05;13.30;75.30
30304;DHT22;17112;48.636;10.152;2022-10-26T04:52:31;13.30;75.30
30304;DHT22;17112;48.636;10.152;2022-10-26T04:54:57;13.30;75.50
30304;DHT22;17112;48.636;10.152;2022-10-26T04:57:23;13.30;75.60
30304;DHT22;17112;48.636;10.152;2022-10-26T04:59:48;13.30;75.60
30304;DHT22;17112;48.636;10.152;2022-10-26T05:02:14;13.30;75.60
30304;DHT22;17112;48.636;10.152;2022-10-26T05:04:40;13.30;75.60
30304;DHT22;17112;48.636;10.152;2022-10-26T05:07:05;13.40;75.70
30304;DHT22;17112;48.636;10.152;2022-10-26T05:09:31;13.40;75.50
30304;DHT22;17112;48.636;10.152;2022-10-26T05:11:57;13.30;75.10
30304;DHT22;17112;48.636;10.152;2022-10-26T05:14:22;13.30;75.00
30304;DHT22;17112;48.636;10.152;2022-10-26T05:16:50;13.30;75.00
30304;DHT22;17112;48.636;10.152;2022-10-26T05:19:16;13.30;75.00
30304;DHT22;17112;48.636;10.152;2022-10-26T05:21:41;13.30;75.20
30304;DHT22;17112;48.636;10.152;2022-10-26T05:24:07;13.20;75.60
30304;DHT22;17112;48.636;10.152;2022-10-26T05:26:33;13.20;75.90
30304;DHT22;17112;48.636;10.152;2022-10-26T05:28:59;13.20;75.90
30304;DHT22;17112;48.636;10.152;2022-10-26T05:31:24;13.20;75.90
30304;DHT22;17112;48.636;10.152;2022-10-26T05:33:50;13.20;76.10
30304;DHT22;17112;48.636;10.152;2022-10-26T05:36:17;13.20;76.10
30304;DHT22;17112;48.636;10.152;2022-10-26T05:38:43;13.20;76.20
30304;DHT22;17112;48.636;10.152;2022-10-26T05:41:09;13.20;76.10
30304;DHT22;17112;48.636;10.152;2022-10-26T05:43:34;13.20;76.20
30304;DHT22;17112;48.636;10.152;2022-10-26T05:46:01;13.20;76.30
30304;DHT22;17112;48.636;10.152;2022-10-26T05:48:27;13.30;77.00
30304;DHT22;17112;48.636;10.152;2022-10-26T05:50:59;13.30;76.20
30304;DHT22;17112;48.636;10.152;2022-10-26T05:53:26;13.30;76.20
30304;DHT22;17112;48.636;10.152;2022-10-26T05:55:53;13.30;76.20
30304;DHT22;17112;48.636;10.152;2022-10-26T05:58:18;13.30;76.00
30304;DHT22;17112;48.636;10.152;2022-10-26T06:01:12;13.30;76.20
30304;DHT22;17112;48.636;10.152;2022-10-26T06:03:57;13.30;76.70
30304;DHT22;17112;48.636;10.152;2022-10-26T06:06:37;13.30;76.60
30304;DHT22;17112;48.636;10.152;2022-10-26T06:09:04;13.30;76.80
30304;DHT22;17112;48.636;10.152;2022-10-26T06:11:30;13.30;76.30
30304;DHT22;17112;48.636;10.152;2022-10-26T06:13:56;13.40;76.50
30304;DHT22;17112;48.636;10.152;2022-10-26T06:16:31;13.40;76.60
30304;DHT22;17112;48.636;10.152;2022-10-26T06:19:18;13.40;76.80
30304;DHT22;17112;48.636;10.152;2022-10-26T06:30:24;13.50;77.10
30304;DHT22;17112;48.636;10.152;2022-10-26T06:32:50;13.60;76.50
30304;DHT22;17112;48.636;10.152;2022-10-26T06:35:26;13.50;76.50
30304;DHT22;17112;48.636;10.152;2022-10-26T06:37:57;13.60;76.60
30304;DHT22;17112;48.636;10.152;2022-10-26T06:40:23;13.60;76.50
30304;DHT22;17112;48.636;10.152;2022-10-26T06:42:50;13.60;76.50
30304;DHT22;17112;48.636;10.152;2022-10-26T06:45:17;13.60;76.40
30304;DHT22;17112;48.636;10.152;2022-10-26T06:47:59;13.70;76.60
30304;DHT22;17112;48.636;10.152;2022-10-26T06:55:43;13.70;76.60
30304;DHT22;17112;48.636;10.152;2022-10-26T06:58:18;13.80;76.60
30304;DHT22;17112;48.636;10.152;2022-10-26T07:00:44;13.80;76.80
30304;DHT22;17112;48.636;10.152;2022-10-26T07:03:11;13.90;77.00
30304;DHT22;17112;48.636;10.152;2022-10-26T07:05:36;13.90;76.10
30304;DHT22;17112;48.636;10.152;2022-10-26T07:08:04;13.90;76.40
30304;DHT22;17112;48.636;10.152;2022-10-26T07:10:30;13.90;76.40
30304;DHT22;17112;48.636;10.152;2022-10-26T07:12:56;14.00;76.60
30304;DHT22;17112;48.636;10.152;2022-10-26T07:15:23;14.00;76.60
30304;DHT22;17112;48.636;10.152;2022-10-26T07:17:49;14.10;76.60
30304;DHT22;17112;48.636;10.152;2022-10-26T07:20:16;14.20;76.60
30304;DHT22;17112;48.636;10.152;2022-10-26T07:22:42;14.30;76.70
30304;DHT22;17112;48.636;10.152;2022-10-26T07:25:08;14.30;76.70
30304;DHT22;17112;48.636;10.152;2022-10-26T07:27:34;14.40;76.90
30304;DHT22;17112;48.636;10.152;2022-10-26T07:30:01;14.50;76.80
30304;DHT22;17112;48.636;10.152;2022-10-26T07:32:26;14.60;76.80
30304;DHT22;17112;48.636;10.152;2022-10-26T07:34:52;14.70;76.70
30304;DHT22;17112;48.636;10.152;2022-10-26T07:37:17;14.80;76.40
30304;DHT22;17112;48.636;10.152;2022-10-26T07:39:43;14.80;76.20
30304;DHT22;17112;48.636;10.152;2022-10-26T07:42:09;14.90;76.00
30304;DHT22;17112;48.636;10.152;2022-10-26T07:44:34;14.90;75.80
30304;DHT22;17112;48.636;10.152;2022-10-26T07:47:00;14.90;75.50
30304;DHT22;17112;48.636;10.152;2022-10-26T07:49:26;15.00;75.40
30304;DHT22;17112;48.636;10.152;2022-10-26T07:51:51;15.00;75.50
30304;DHT22;17112;48.636;10.152;2022-10-26T07:54:17;15.00;75.60
30304;DHT22;17112;48.636;10.152;2022-10-26T07:56:43;15.00;75.60
30304;DHT22;17112;48.636;10.152;2022-10-26T07:59:10;15.00;75.60
30304;DHT22;17112;48.636;10.152;2022-10-26T08:01:37;15.10;75.90
30304;DHT22;17112;48.636;10.152;2022-10-26T08:04:02;15.10;75.80
30304;DHT22;17112;48.636;10.152;2022-10-26T08:06:33;15.20;75.80
30304;DHT22;17112;48.636;10.152;2022-10-26T08:08:59;15.20;75.90
30304;DHT22;17112;48.636;10.152;2022-10-26T08:11:25;15.30;75.90
30304;DHT22;17112;48.636;10.152;2022-10-26T08:13:51;15.40;75.80
30304;DHT22;17112;48.636;10.152;2022-10-26T08:16:19;15.40;75.80
30304;DHT22;17112;48.636;10.152;2022-10-26T08:18:48;15.50;75.60
30304;DHT22;17112;48.636;10.152;2022-10-26T08:21:14;15.60;75.60
30304;DHT22;17112;48.636;10.152;2022-10-26T08:23:40;15.70;75.60
30304;DHT22;17112;48.636;10.152;2022-10-26T08:26:07;15.80;75.60
30304;DHT22;17112;48.636;10.152;2022-10-26T08:28:33;15.90;75.70
30304;DHT22;17112;48.636;10.152;2022-10-26T08:30:58;16.00;75.70
30304;DHT22;17112;48.636;10.152;2022-10-26T08:33:24;16.00;75.40
30304;DHT22;17112;48.636;10.152;2022-10-26T08:35:58;16.10;75.30
30304;DHT22;17112;48.636;10.152;2022-10-26T08:38:25;16.20;75.20
30304;DHT22;17112;48.636;10.152;2022-10-26T08:40:52;16.30;75.00
30304;DHT22;17112;48.636;10.152;2022-10-26T08:43:28;16.40;74.80
30304;DHT22;17112;48.636;10.152;2022-10-26T08:48:41;16.50;74.40
30304;DHT22;17112;48.636;10.152;2022-10-26T08:51:20;16.60;74.00
30304;DHT22;17112;48.636;10.152;2022-10-26T08:56:23;16.70;73.70
30304;DHT22;17112;48.636;10.152;2022-10-26T08:58:58;16.70;73.80
30304;DHT22;17112;48.636;10.152;2022-10-26T09:01:25;16.70;73.90
30304;DHT22;17112;48.636;10.152;2022-10-26T09:03:51;16.80;73.90
30304;DHT22;17112;48.636;10.152;2022-10-26T09:06:28;16.80;73.80
30304;DHT22;17112;48.636;10.152;2022-10-26T09:09:18;16.90;73.80
30304;DHT22;17112;48.636;10.152;2022-10-26T09:20:05;17.10;73.70
30304;DHT22;17112;48.636;10.152;2022-10-26T09:22:37;17.20;73.30
30304;DHT22;17112;48.636;10.152;2022-10-26T09:25:18;17.20;72.90
30304;DHT22;17112;48.636;10.152;2022-10-26T09:27:54;17.20;72.90
30304;DHT22;17112;48.636;10.152;2022-10-26T09:30:21;17.20;72.80
30304;DHT22;17112;48.636;10.152;2022-10-26T09:32:49;17.20;72.90
30304;DHT22;17112;48.636;10.152;2022-10-26T09:35:26;17.20;73.10
30304;DHT22;17112;48.636;10.152;2022-10-26T09:38:15;17.20;73.10
30304;DHT22;17112;48.636;10.152;2022-10-26T09:43:49;17.20;73.60
30304;DHT22;17112;48.636;10.152;2022-10-26T09:46:30;17.20;73.70
30304;DHT22;17112;48.636;10.152;2022-10-26T09:49:04;17.20;73.70
30304;DHT22;17112;48.636;10.152;2022-10-26T09:51:33;17.30;73.90
30304;DHT22;17112;48.636;10.152;2022-10-26T09:54:01;17.30;74.00
30304;DHT22;17112;48.636;10.152;2022-10-26T09:56:28;17.40;74.30
30304;DHT22;17112;48.636;10.152;2022-10-26T09:59:00;17.50;74.60
30304;DHT22;17112;48.636;10.152;2022-10-26T10:01:33;17.60;74.60
30304;DHT22;17112;48.636;10.152;2022-10-26T10:06:41;17.90;74.80
30304;DHT22;17112;48.636;10.152;2022-10-26T10:11:44;18.10;74.30
30304;DHT22;17112;48.636;10.152;2022-10-26T10:14:15;18.20;73.90
30304;DHT22;17112;48.636;10.152;2022-10-26T10:17:04;18.30;73.80
30304;DHT22;17112;48.636;10.152;2022-10-26T10:19:34;18.50;73.20
30304;DHT22;17112;48.636;10.152;2022-10-26T10:24:59;18.60;73.10
30304;DHT22;17112;48.636;10.152;2022-10-26T10:27:26;18.70;72.60
30304;DHT22;17112;48.636;10.152;2022-10-26T10:29:56;18.80;72.40
30304;DHT22;17112;48.636;10.152;2022-10-26T10:32:25;18.80;72.10
30304;DHT22;17112;48.636;10.152;2022-10-26T10:34:54;18.90;72.00
30304;DHT22;17112;48.636;10.152;2022-10-26T10:40:22;19.00;71.70
30304;DHT22;17112;48.636;10.152;2022-10-26T10:42:49;19.10;71.60
30304;DHT22;17112;48.636;10.152;2022-10-26T10:45:20;19.10;71.60
30304;DHT22;17112;48.636;10.152;2022-10-26T10:48:15;19.10;71.40
30304;DHT22;17112;48.636;10.152;2022-10-26T10:53:45;19.30;72.40
30304;DHT22;17112;48.636;10.152;2022-10-26T11:02:59;19.90;71.60
30304;DHT22;17112;48.636;10.152;2022-10-26T11:08:07;20.30;70.10
30304;DHT22;17112;48.636;10.152;2022-10-26T11:10:46;20.50;69.60
30304;DHT22;17112;48.636;10.152;2022-10-26T11:13:28;20.60;69.70
30304;DHT22;17112;48.636;10.152;2022-10-26T11:16:02;20.70;69.10
30304;DHT22;17112;48.636;10.152;2022-10-26T11:18:53;20.80;68.80
30304;DHT22;17112;48.636;10.152;2022-10-26T11:21:39;20.90;68.50
30304;DHT22;17112;48.636;10.152;2022-10-26T11:24:10;21.00;67.80
30304;DHT22;17112;48.636;10.152;2022-10-26T11:26:43;21.20;68.30
30304;DHT22;17112;48.636;10.152;2022-10-26T11:29:20;21.30;67.50
30304;DHT22;17112;48.636;10.152;2022-10-26T11:32:00;21.40;66.50
30304;DHT22;17112;48.636;10.152;2022-10-26T11:34:57;21.60;66.30
30304;DHT22;17112;48.636;10.152;2022-10-26T11:37:41;21.70;66.40
30304;DHT22;17112;48.636;10.152;2022-10-26T11:45:41;22.00;64.80
30304;DHT22;17112;48.636;10.152;2022-10-26T11:48:22;22.10;65.10
30304;DHT22;17112;48.636;10.152;2022-10-26T11:50:56;22.20;64.90
30304;DHT22;17112;48.636;10.152;2022-10-26T11:53:44;22.20;64.30
30304;DHT22;17112;48.636;10.152;2022-10-26T11:56:22;22.30;65.10
30304;DHT22;17112;48.636;10.152;2022-10-26T11:58:49;22.40;64.60
30304;DHT22;17112;48.636;10.152;2022-10-26T12:01:15;22.50;64.90
30304;DHT22;17112;48.636;10.152;2022-10-26T12:03:48;22.60;64.00
30304;DHT22;17112;48.636;10.152;2022-10-26T12:06:21;22.70;63.70
30304;DHT22;17112;48.636;10.152;2022-10-26T12:08:56;22.80;63.50
30304;DHT22;17112;48.636;10.152;2022-10-26T12:11:48;23.00;63.60
30304;DHT22;17112;48.636;10.152;2022-10-26T12:14:20;23.10;63.10
30304;DHT22;17112;48.636;10.152;2022-10-26T12:17:25;23.30;63.10
30304;DHT22;17112;48.636;10.152;2022-10-26T12:19:58;23.40;59.90
30304;DHT22;17112;48.636;10.152;2022-10-26T12:22:31;23.50;57.80
30304;DHT22;17112;48.636;10.152;2022-10-26T12:30:21;23.70;57.70
30304;DHT22;17112;48.636;10.152;2022-10-26T12:32:50;23.80;56.80
30304;DHT22;17112;48.636;10.152;2022-10-26T12:35:40;23.80;57.10
30304;DHT22;17112;48.636;10.152;2022-10-26T12:38:26;23.80;56.00
30304;DHT22;17112;48.636;10.152;2022-10-26T12:41:22;23.80;55.30
30304;DHT22;17112;48.636;10.152;2022-10-26T12:43:48;23.80;56.10
30304;DHT22;17112;48.636;10.152;2022-10-26T12:48:45;23.80;57.10
30304;DHT22;17112;48.636;10.152;2022-10-26T12:56:58;24.10;55.00
30304;DHT22;17112;48.636;10.152;2022-10-26T12:59:43;24.20;53.00
30304;DHT22;17112;48.636;10.152;2022-10-26T13:08:12;24.20;53.50
30304;DHT22;17112;48.636;10.152;2022-10-26T13:11:05;24.10;54.40
30304;DHT22;17112;48.636;10.152;2022-10-26T13:13:32;24.10;54.80
30304;DHT22;17112;48.636;10.152;2022-10-26T13:15:59;24.00;54.80
30304;DHT22;17112;48.636;10.152;2022-10-26T13:18:27;24.00;54.40
30304;DHT22;17112;48.636;10.152;2022-10-26T13:21:09;24.00;54.40
30304;DHT22;17112;48.636;10.152;2022-10-26T13:23:39;23.90;53.50
30304;DHT22;17112;48.636;10.152;2022-10-26T13:26:16;23.90;53.70
30304;DHT22;17112;48.636;10.152;2022-10-26T13:33:43;23.50;54.00
30304;DHT22;17112;48.636;10.152;2022-10-26T13:38:57;23.40;54.20
30304;DHT22;17112;48.636;10.152;2022-10-26T13:41:32;23.30;55.00
30304;DHT22;17112;48.636;10.152;2022-10-26T13:44:02;23.30;54.80
30304;DHT22;17112;48.636;10.152;2022-10-26T13:46:33;23.30;54.90
30304;DHT22;17112;48.636;10.152;2022-10-26T13:49:06;23.20;54.40
30304;DHT22;17112;48.636;10.152;2022-10-26T13:51:40;23.10;54.70
30304;DHT22;17112;48.636;10.152;2022-10-26T13:59:32;23.00;54.50
30304;DHT22;17112;48.636;10.152;2022-10-26T14:02:27;22.90;55.20
30304;DHT22;17112;48.636;10.152;2022-10-26T14:05:02;22.90;55.00
30304;DHT22;17112;48.636;10.152;2022-10-26T14:07:38;22.90;55.20
30304;DHT22;17112;48.636;10.152;2022-10-26T14:10:05;22.90;56.40
30304;DHT22;17112;48.636;10.152;2022-10-26T14:12:31;22.90;55.70
30304;DHT22;17112;48.636;10.152;2022-10-26T14:15:06;22.80;55.70
30304;DHT22;17112;48.636;10.152;2022-10-26T14:17:33;22.70;55.30
30304;DHT22;17112;48.636;10.152;2022-10-26T14:19:58;22.70;55.50
30304;DHT22;17112;48.636;10.152;2022-10-26T14:22:26;22.70;55.80
30304;DHT22;17112;48.636;10.152;2022-10-26T14:24:54;22.70;55.90
30304;DHT22;17112;48.636;10.152;2022-10-26T14:27:24;22.70;56.10
30304;DHT22;17112;48.636;10.152;2022-10-26T14:29:51;22.60;55.80
30304;DHT22;17112;48.636;10.152;2022-10-26T14:32:27;22.60;56.00
30304;DHT22;17112;48.636;10.152;2022-10-26T14:34:54;22.60;55.60
30304;DHT22;17112;48.636;10.152;2022-10-26T14:37:38;22.60;56.40
30304;DHT22;17112;48.636;10.152;2022-10-26T14:40:15;22.70;56.00
30304;DHT22;17112;48.636;10.152;2022-10-26T14:42:42;22.70;56.00
30304;DHT22;17112;48.636;10.152;2022-10-26T14:45:28;22.80;56.20
30304;DHT22;17112;48.636;10.152;2022-10-26T14:47:59;22.80;56.00
30304;DHT22;17112;48.636;10.152;2022-10-26T14:50:26;22.90;56.60
30304;DHT22;17112;48.636;10.152;2022-10-26T14:53:02;22.90;56.50
30304;DHT22;17112;48.636;10.152;2022-10-26T14:55:28;22.90;56.50
30304;DHT22;17112;48.636;10.152;2022-10-26T14:58:27;22.90;56.60
30304;DHT22;17112;48.636;10.152;2022-10-26T15:03:44;22.90;56.10
30304;DHT22;17112;48.636;10.152;2022-10-26T15:08:58;22.90;56.00
30304;DHT22;17112;48.636;10.152;2022-10-26T15:11:27;22.90;56.50
30304;DHT22;17112;48.636;10.152;2022-10-26T15:13:54;22.80;56.30
30304;DHT22;17112;48.636;10.152;2022-10-26T15:16:23;22.80;56.70
30304;DHT22;17112;48.636;10.152;2022-10-26T15:18:52;22.70;56.60
30304;DHT22;17112;48.636;10.152;2022-10-26T15:23:44;22.60;56.60
30304;DHT22;17112;48.636;10.152;2022-10-26T15:26:10;22.60;56.80
30304;DHT22;17112;48.636;10.152;2022-10-26T15:28:37;22.50;56.90
30304;DHT22;17112;48.636;10.152;2022-10-26T15:38:44;22.00;57.60
30304;DHT22;17112;48.636;10.152;2022-10-26T15:41:22;21.90;57.70
30304;DHT22;17112;48.636;10.152;2022-10-26T15:43:50;21.80;57.80
30304;DHT22;17112;48.636;10.152;2022-10-26T15:46:17;21.70;58.00
30304;DHT22;17112;48.636;10.152;2022-10-26T15:48:46;21.50;58.20
30304;DHT22;17112;48.636;10.152;2022-10-26T15:51:14;21.40;58.50
30304;DHT22;17112;48.636;10.152;2022-10-26T15:53:39;21.30;58.70
30304;DHT22;17112;48.636;10.152;2022-10-26T15:56:14;21.20;58.90
30304;DHT22;17112;48.636;10.152;2022-10-26T15:58:40;21.10;59.20
30304;DHT22;17112;48.636;10.152;2022-10-26T16:01:06;20.90;59.10
30304;DHT22;17112;48.636;10.152;2022-10-26T16:03:32;20.80;59.30
30304;DHT22;17112;48.636;10.152;2022-10-26T16:05:59;20.70;59.60
30304;DHT22;17112;48.636;10.152;2022-10-26T16:08:29;20.60;59.80
30304;DHT22;17112;48.636;10.152;2022-10-26T16:10:55;20.50;60.10
30304;DHT22;17112;48.636;10.152;2022-10-26T16:13:21;20.40;60.30
30304;DHT22;17112;48.636;10.152;2022-10-26T16:15:46;20.30;60.60
30304;DHT22;17112;48.636;10.152;2022-10-26T16:18:13;20.20;60.90
30304;DHT22;17112;48.636;10.152;2022-10-26T16:20:39;20.10;61.00
30304;DHT22;17112;48.636;10.152;2022-10-26T16:23:05;20.00;61.20
30304;DHT22;17112;48.636;10.152;2022-10-26T16:25:33;19.90;61.40
30304;DHT22;17112;48.636;10.152;2022-10-26T16:27:59;19.80;61.60
30304;DHT22;17112;48.636;10.152;2022-10-26T16:30:25;19.70;61.80
30304;DHT22;17112;48.636;10.152;2022-10-26T16:32:51;19.60;62.10
30304;DHT22;17112;48.636;10.152;2022-10-26T16:35:17;19.50;62.20
30304;DHT22;17112;48.636;10.152;2022-10-26T16:37:44;19.50;62.50
30304;DHT22;17112;48.636;10.152;2022-10-26T16:40:10;19.40;62.70
30304;DHT22;17112;48.636;10.152;2022-10-26T16:42:36;19.30;62.90
30304;DHT22;17112;48.636;10.152;2022-10-26T16:45:02;19.30;63.10
30304;DHT22;17112;48.636;10.152;2022-10-26T16:47:28;19.20;63.30
30304;DHT22;17112;48.636;10.152;2022-10-26T16:49:53;19.10;63.40
30304;DHT22;17112;48.636;10.152;2022-10-26T16:52:19;19.00;63.40
30304;DHT22;17112;48.636;10.152;2022-10-26T16:54:44;19.00;63.60
30304;DHT22;17112;48.636;10.152;2022-10-26T16:57:10;18.90;63.80
30304;DHT22;17112;48.636;10.152;2022-10-26T16:59:36;18.80;64.60
30304;DHT22;17112;48.636;10.152;2022-10-26T17:02:01;18.70;64.00
30304;DHT22;17112;48.636;10.152;2022-10-26T17:04:27;18.70;64.10
30304;DHT22;17112;48.636;10.152;2022-10-26T17:06:53;18.60;64.20
30304;DHT22;17112;48.636;10.152;2022-10-26T17:09:18;18.50;64.30
30304;DHT22;17112;48.636;10.152;2022-10-26T17:11:44;18.50;64.50
30304;DHT22;17112;48.636;10.152;2022-10-26T17:14:10;18.40;64.60
30304;DHT22;17112;48.636;10.152;2022-10-26T17:16:35;18.30;64.70
30304;DHT22;17112;48.636;10.152;2022-10-26T17:19:01;18.20;65.60
30304;DHT22;17112;48.636;10.152;2022-10-26T17:21:29;18.10;65.10
30304;DHT22;17112;48.636;10.152;2022-10-26T17:23:55;18.00;65.40
30304;DHT22;17112;48.636;10.152;2022-10-26T17:26:22;17.90;65.40
30304;DHT22;17112;48.636;10.152;2022-10-26T17:28:51;17.90;65.70
30304;DHT22;17112;48.636;10.152;2022-10-26T17:31:18;17.80;66.80
30304;DHT22;17112;48.636;10.152;2022-10-26T17:33:44;17.70;66.00
30304;DHT22;17112;48.636;10.152;2022-10-26T17:36:15;17.60;66.10
30304;DHT22;17112;48.636;10.152;2022-10-26T17:38:42;17.60;66.20